sensor_id;sensor_type;location;lat;lon;timestamp;temperature;humidity
53272;DHT22;39160;48.580;7.756;2024-01-15T00:02:07;-0.20;99.90
53272;DHT22;39160;48.580;7.756;2024-01-15T00:06:58;-0.20;99.90
53272;DHT22;39160;48.580;7.756;2024-01-15T00:11:49;-0.20;99.90
53272;DHT22;39160;48.580;7.756;2024-01-15T00:16:40;-0.20;99.90
53272;DHT22;39160;48.580;7.756;2024-01-15T00:21:31;-0.20;99.90
53272;DHT22;39160;48.580;7.756;2024-01-15T00:26:21;-0.20;99.90
53272;DHT22;39160;48.580;7.756;2024-01-15T00:31:12;-0.20;99.90
53272;DHT22;39160;48.580;7.756;2024-01-15T00:36:03;-0.20;99.90
53272;DHT22;39160;48.580;7.756;2024-01-15T00:40:54;-0.20;99.90
53272;DHT22;39160;48.580;7.756;2024-01-15T00:45:45;-0.20;99.90
53272;DHT22;39160;48.580;7.756;2024-01-15T00:50:35;-0.20;99.90
53272;DHT22;39160;48.580;7.756;2024-01-15T00:55:28;-0.20;99.90
53272;DHT22;39160;48.580;7.756;2024-01-15T01:00:19;-0.20;99.90
53272;DHT22;39160;48.580;7.756;2024-01-15T01:05:09;-0.20;99.90
53272;DHT22;39160;48.580;7.756;2024-01-15T01:10:00;-0.20;99.90
53272;DHT22;39160;48.580;7.756;2024-01-15T01:14:51;-0.10;99.90
53272;DHT22;39160;48.580;7.756;2024-01-15T01:19:41;-0.10;99.90
53272;DHT22;39160;48.580;7.756;2024-01-15T01:24:32;-0.20;99.90
53272;DHT22;39160;48.580;7.756;2024-01-15T01:29:23;-0.10;99.90
53272;DHT22;39160;48.580;7.756;2024-01-15T01:34:15;-0.10;99.90
53272;DHT22;39160;48.580;7.756;2024-01-15T01:39:06;-0.10;99.90
53272;DHT22;39160;48.580;7.756;2024-01-15T01:43:57;0.00;99.90
53272;DHT22;39160;48.580;7.756;2024-01-15T01:48:47;0.00;99.90
53272;DHT22;39160;48.580;7.756;2024-01-15T01:53:38;0.00;99.90
53272;DHT22;39160;48.580;7.756;2024-01-15T01:58:30;0.00;99.90
53272;DHT22;39160;48.580;7.756;2024-01-15T02:03:22;0.00;99.90
53272;DHT22;39160;48.580;7.756;2024-01-15T02:08:12;0.00;99.90
53272;DHT22;39160;48.580;7.756;2024-01-15T02:13:03;0.10;99.90
53272;DHT22;39160;48.580;7.756;2024-01-15T02:22:52;0.10;99.90
53272;DHT22;39160;48.580;7.756;2024-01-15T02:27:44;0.10;99.90
53272;DHT22;39160;48.580;7.756;2024-01-15T02:32:35;0.10;99.90
53272;DHT22;39160;48.580;7.756;2024-01-15T02:37:25;0.10;99.90
53272;DHT22;39160;48.580;7.756;2024-01-15T02:42:16;0.10;99.90
53272;DHT22;39160;48.580;7.756;2024-01-15T02:47:06;0.20;99.90
53272;DHT22;39160;48.580;7.756;2024-01-15T02:51:57;0.10;99.90
53272;DHT22;39160;48.580;7.756;2024-01-15T02:56:48;0.10;99.90
53272;DHT22;39160;48.580;7.756;2024-01-15T03:01:38;0.10;99.90
53272;DHT22;39160;48.580;7.756;2024-01-15T03:06:29;0.10;99.90
53272;DHT22;39160;48.580;7.756;2024-01-15T03:11:20;0.10;99.90
53272;DHT22;39160;48.580;7.756;2024-01-15T03:16:10;0.10;99.90
53272;DHT22;39160;48.580;7.756;2024-01-15T03:21:01;0.20;99.90
53272;DHT22;39160;48.580;7.756;2024-01-15T03:25:53;0.10;99.90
53272;DHT22;39160;48.580;7.756;2024-01-15T03:30:44;0.10;99.90
53272;DHT22;39160;48.580;7.756;2024-01-15T03:35:34;0.20;99.90
53272;DHT22;39160;48.580;7.756;2024-01-15T03:40:25;0.20;99.90
53272;DHT22;39160;48.580;7.756;2024-01-15T03:45:16;0.20;99.90
53272;DHT22;39160;48.580;7.756;2024-01-15T03:50:06;0.20;99.90
53272;DHT22;39160;48.580;7.756;2024-01-15T03:54:57;0.30;99.90
53272;DHT22;39160;48.580;7.756;2024-01-15T03:59:48;0.30;99.90
53272;DHT22;39160;48.580;7.756;2024-01-15T04:04:43;0.30;99.90
53272;DHT22;39160;48.580;7.756;2024-01-15T04:09:33;0.30;99.90
53272;DHT22;39160;48.580;7.756;2024-01-15T04:14:24;0.40;99.90
53272;DHT22;39160;48.580;7.756;2024-01-15T04:19:14;0.40;99.90
53272;DHT22;39160;48.580;7.756;2024-01-15T04:24:05;0.40;99.90
53272;DHT22;39160;48.580;7.756;2024-01-15T04:28:56;0.40;99.90
53272;DHT22;39160;48.580;7.756;2024-01-15T04:33:46;0.40;99.90
53272;DHT22;39160;48.580;7.756;2024-01-15T04:38:37;0.40;99.90
53272;DHT22;39160;48.580;7.756;2024-01-15T04:43:28;0.40;99.90
53272;DHT22;39160;48.580;7.756;2024-01-15T04:48:18;0.40;99.90
53272;DHT22;39160;48.580;7.756;2024-01-15T04:53:09;0.40;99.90
53272;DHT22;39160;48.580;7.756;2024-01-15T04:57:59;0.40;99.90
53272;DHT22;39160;48.580;7.756;2024-01-15T05:02:50;0.40;99.90
53272;DHT22;39160;48.580;7.756;2024-01-15T05:07:41;0.40;99.90
53272;DHT22;39160;48.580;7.756;2024-01-15T05:12:31;0.40;99.90
53272;DHT22;39160;48.580;7.756;2024-01-15T05:17:22;0.40;99.90
53272;DHT22;39160;48.580;7.756;2024-01-15T05:22:13;0.40;99.90
53272;DHT22;39160;48.580;7.756;2024-01-15T05:27:03;0.40;99.90
53272;DHT22;39160;48.580;7.756;2024-01-15T05:31:54;0.50;99.90
53272;DHT22;39160;48.580;7.756;2024-01-15T05:36:45;0.50;99.90
53272;DHT22;39160;48.580;7.756;2024-01-15T05:41:38;0.40;99.90
53272;DHT22;39160;48.580;7.756;2024-01-15T05:46:28;0.40;99.90
53272;DHT22;39160;48.580;7.756;2024-01-15T05:51:19;0.40;99.90
53272;DHT22;39160;48.580;7.756;2024-01-15T05:56:10;0.40;99.90
53272;DHT22;39160;48.580;7.756;2024-01-15T06:01:01;0.40;99.90
53272;DHT22;39160;48.580;7.756;2024-01-15T06:05:52;0.50;99.90
53272;DHT22;39160;48.580;7.756;2024-01-15T06:10:42;0.40;99.90
53272;DHT22;39160;48.580;7.756;2024-01-15T06:15:33;0.40;99.90
53272;DHT22;39160;48.580;7.756;2024-01-15T06:20:24;0.50;99.90
53272;DHT22;39160;48.580;7.756;2024-01-15T06:25:14;0.50;99.90
53272;DHT22;39160;48.580;7.756;2024-01-15T06:30:05;0.50;99.90
53272;DHT22;39160;48.580;7.756;2024-01-15T06:34:56;0.50;99.90
53272;DHT22;39160;48.580;7.756;2024-01-15T06:39:46;0.50;99.90
53272;DHT22;39160;48.580;7.756;2024-01-15T06:44:37;0.50;99.90
53272;DHT22;39160;48.580;7.756;2024-01-15T06:49:29;0.60;99.90
53272;DHT22;39160;48.580;7.756;2024-01-15T06:54:19;0.60;99.90
53272;DHT22;39160;48.580;7.756;2024-01-15T06:59:10;0.70;99.90
53272;DHT22;39160;48.580;7.756;2024-01-15T07:04:01;0.70;99.90
53272;DHT22;39160;48.580;7.756;2024-01-15T07:08:52;0.70;99.90
53272;DHT22;39160;48.580;7.756;2024-01-15T07:13:42;0.70;99.90
53272;DHT22;39160;48.580;7.756;2024-01-15T07:18:33;0.70;99.90
53272;DHT22;39160;48.580;7.756;2024-01-15T07:23:23;0.60;99.90
53272;DHT22;39160;48.580;7.756;2024-01-15T07:28:14;0.60;99.90
53272;DHT22;39160;48.580;7.756;2024-01-15T07:33:05;0.60;99.90
53272;DHT22;39160;48.580;7.756;2024-01-15T07:37:56;0.60;99.90
53272;DHT22;39160;48.580;7.756;2024-01-15T07:42:46;0.60;99.90
53272;DHT22;39160;48.580;7.756;2024-01-15T07:47:38;0.60;99.90
53272;DHT22;39160;48.580;7.756;2024-01-15T07:52:28;0.70;99.90
53272;DHT22;39160;48.580;7.756;2024-01-15T07:57:19;0.70;99.90
53272;DHT22;39160;48.580;7.756;2024-01-15T08:02:09;0.70;99.90
53272;DHT22;39160;48.580;7.756;2024-01-15T08:07:00;0.70;99.90
53272;DHT22;39160;48.580;7.756;2024-01-15T08:11:51;0.70;99.90
53272;DHT22;39160;48.580;7.756;2024-01-15T08:16:42;0.70;99.90
53272;DHT22;39160;48.580;7.756;2024-01-15T08:21:34;0.70;99.90
53272;DHT22;39160;48.580;7.756;2024-01-15T08:26:25;0.80;99.90
53272;DHT22;39160;48.580;7.756;2024-01-15T08:31:16;0.80;99.90
53272;DHT22;39160;48.580;7.756;2024-01-15T08:36:07;0.80;99.90
53272;DHT22;39160;48.580;7.756;2024-01-15T08:40:58;0.80;99.90
53272;DHT22;39160;48.580;7.756;2024-01-15T08:45:50;0.90;99.90
53272;DHT22;39160;48.580;7.756;2024-01-15T08:50:41;0.90;99.90
53272;DHT22;39160;48.580;7.756;2024-01-15T08:55:32;0.90;99.90
53272;DHT22;39160;48.580;7.756;2024-01-15T09:00:23;1.00;99.90
53272;DHT22;39160;48.580;7.756;2024-01-15T09:05:13;1.00;99.90
53272;DHT22;39160;48.580;7.756;2024-01-15T09:10:04;1.00;99.90
53272;DHT22;39160;48.580;7.756;2024-01-15T09:14:55;1.00;99.90
53272;DHT22;39160;48.580;7.756;2024-01-15T09:19:46;1.10;99.90
53272;DHT22;39160;48.580;7.756;2024-01-15T09:24:36;1.10;99.90
53272;DHT22;39160;48.580;7.756;2024-01-15T09:29:27;1.20;99.90
53272;DHT22;39160;48.580;7.756;2024-01-15T09:34:18;1.10;99.90
53272;DHT22;39160;48.580;7.756;2024-01-15T09:39:09;1.20;99.90
53272;DHT22;39160;48.580;7.756;2024-01-15T09:44:02;1.30;99.90
53272;DHT22;39160;48.580;7.756;2024-01-15T09:48:53;1.30;99.90
53272;DHT22;39160;48.580;7.756;2024-01-15T09:53:45;1.30;99.90
53272;DHT22;39160;48.580;7.756;2024-01-15T09:58:37;1.40;99.90
53272;DHT22;39160;48.580;7.756;2024-01-15T10:03:28;1.40;99.90
53272;DHT22;39160;48.580;7.756;2024-01-15T10:08:19;1.50;99.90
53272;DHT22;39160;48.580;7.756;2024-01-15T10:13:11;1.50;99.90
53272;DHT22;39160;48.580;7.756;2024-01-15T10:18:02;1.50;99.90
53272;DHT22;39160;48.580;7.756;2024-01-15T10:22:53;1.60;99.90
53272;DHT22;39160;48.580;7.756;2024-01-15T10:28:02;1.60;99.90
53272;DHT22;39160;48.580;7.756;2024-01-15T10:33:03;1.70;99.90
53272;DHT22;39160;48.580;7.756;2024-01-15T10:37:54;1.70;99.90
53272;DHT22;39160;48.580;7.756;2024-01-15T10:42:45;1.80;99.90
53272;DHT22;39160;48.580;7.756;2024-01-15T10:47:37;1.90;99.90
53272;DHT22;39160;48.580;7.756;2024-01-15T10:52:28;1.90;99.90
53272;DHT22;39160;48.580;7.756;2024-01-15T10:57:21;1.90;99.90
53272;DHT22;39160;48.580;7.756;2024-01-15T11:02:14;1.90;99.90
53272;DHT22;39160;48.580;7.756;2024-01-15T11:07:05;1.80;99.90
53272;DHT22;39160;48.580;7.756;2024-01-15T11:12:13;1.80;99.90
53272;DHT22;39160;48.580;7.756;2024-01-15T11:17:04;1.90;99.90
53272;DHT22;39160;48.580;7.756;2024-01-15T11:21:55;1.80;99.90
53272;DHT22;39160;48.580;7.756;2024-01-15T11:26:46;1.90;99.90
53272;DHT22;39160;48.580;7.756;2024-01-15T11:41:40;2.00;99.90
53272;DHT22;39160;48.580;7.756;2024-01-15T11:46:36;2.00;99.90
53272;DHT22;39160;48.580;7.756;2024-01-15T11:51:29;2.10;99.90
53272;DHT22;39160;48.580;7.756;2024-01-15T11:56:22;2.10;99.90
53272;DHT22;39160;48.580;7.756;2024-01-15T12:01:13;2.10;99.90
53272;DHT22;39160;48.580;7.756;2024-01-15T12:06:08;2.10;99.90
53272;DHT22;39160;48.580;7.756;2024-01-15T12:10:59;2.10;99.90
53272;DHT22;39160;48.580;7.756;2024-01-15T12:15:50;2.10;99.90
53272;DHT22;39160;48.580;7.756;2024-01-15T12:20:41;2.10;99.90
53272;DHT22;39160;48.580;7.756;2024-01-15T12:25:33;2.00;99.90
53272;DHT22;39160;48.580;7.756;2024-01-15T12:30:26;2.00;99.90
53272;DHT22;39160;48.580;7.756;2024-01-15T12:35:17;2.00;99.90
53272;DHT22;39160;48.580;7.756;2024-01-15T12:40:09;2.10;99.90
53272;DHT22;39160;48.580;7.756;2024-01-15T12:45:05;2.10;99.90
53272;DHT22;39160;48.580;7.756;2024-01-15T12:49:57;2.10;99.90
53272;DHT22;39160;48.580;7.756;2024-01-15T12:54:51;2.10;99.90
53272;DHT22;39160;48.580;7.756;2024-01-15T12:59:43;2.10;99.90
53272;DHT22;39160;48.580;7.756;2024-01-15T13:04:35;2.10;99.90
53272;DHT22;39160;48.580;7.756;2024-01-15T13:09:25;2.10;99.90
53272;DHT22;39160;48.580;7.756;2024-01-15T13:14:16;2.10;99.90
53272;DHT22;39160;48.580;7.756;2024-01-15T13:19:10;2.10;99.90
53272;DHT22;39160;48.580;7.756;2024-01-15T13:24:03;2.10;99.90
53272;DHT22;39160;48.580;7.756;2024-01-15T13:28:55;2.10;99.90
53272;DHT22;39160;48.580;7.756;2024-01-15T13:33:46;2.10;99.90
53272;DHT22;39160;48.580;7.756;2024-01-15T13:38:37;2.00;99.90
53272;DHT22;39160;48.580;7.756;2024-01-15T13:43:28;2.10;99.90
53272;DHT22;39160;48.580;7.756;2024-01-15T13:48:19;2.00;99.90
53272;DHT22;39160;48.580;7.756;2024-01-15T13:53:09;2.10;99.90
53272;DHT22;39160;48.580;7.756;2024-01-15T13:58:00;2.20;99.90
53272;DHT22;39160;48.580;7.756;2024-01-15T14:02:51;2.20;99.90
53272;DHT22;39160;48.580;7.756;2024-01-15T14:07:42;2.20;99.90
53272;DHT22;39160;48.580;7.756;2024-01-15T14:12:34;2.20;99.90
53272;DHT22;39160;48.580;7.756;2024-01-15T14:17:24;2.30;99.90
53272;DHT22;39160;48.580;7.756;2024-01-15T14:22:15;2.30;99.90
53272;DHT22;39160;48.580;7.756;2024-01-15T14:27:06;2.30;99.90
53272;DHT22;39160;48.580;7.756;2024-01-15T14:31:57;2.30;99.90
53272;DHT22;39160;48.580;7.756;2024-01-15T14:36:48;2.40;99.90
53272;DHT22;39160;48.580;7.756;2024-01-15T14:41:40;2.40;99.90
53272;DHT22;39160;48.580;7.756;2024-01-15T14:46:30;2.40;99.90
53272;DHT22;39160;48.580;7.756;2024-01-15T14:51:21;2.50;99.90
53272;DHT22;39160;48.580;7.756;2024-01-15T14:56:11;2.50;99.90
53272;DHT22;39160;48.580;7.756;2024-01-15T15:01:02;2.50;99.90
53272;DHT22;39160;48.580;7.756;2024-01-15T15:05:54;2.50;99.90
53272;DHT22;39160;48.580;7.756;2024-01-15T15:10:44;2.50;99.90
53272;DHT22;39160;48.580;7.756;2024-01-15T15:15:35;2.50;99.90
53272;DHT22;39160;48.580;7.756;2024-01-15T15:20:25;2.50;99.90
53272;DHT22;39160;48.580;7.756;2024-01-15T15:25:16;2.50;99.90
53272;DHT22;39160;48.580;7.756;2024-01-15T15:30:08;2.50;99.90
53272;DHT22;39160;48.580;7.756;2024-01-15T15:34:58;2.50;99.90
53272;DHT22;39160;48.580;7.756;2024-01-15T15:39:49;2.50;99.90
53272;DHT22;39160;48.580;7.756;2024-01-15T15:44:40;2.50;99.90
53272;DHT22;39160;48.580;7.756;2024-01-15T15:49:37;2.60;99.90
53272;DHT22;39160;48.580;7.756;2024-01-15T15:54:28;2.60;99.90
53272;DHT22;39160;48.580;7.756;2024-01-15T15:59:18;2.50;99.90
53272;DHT22;39160;48.580;7.756;2024-01-15T16:04:11;2.50;99.90
53272;DHT22;39160;48.580;7.756;2024-01-15T16:09:02;2.50;99.90
53272;DHT22;39160;48.580;7.756;2024-01-15T16:13:53;2.50;99.90
53272;DHT22;39160;48.580;7.756;2024-01-15T16:18:44;2.50;99.90
53272;DHT22;39160;48.580;7.756;2024-01-15T16:23:35;2.50;99.90
53272;DHT22;39160;48.580;7.756;2024-01-15T16:28:26;2.40;99.90
53272;DHT22;39160;48.580;7.756;2024-01-15T16:33:17;2.50;99.90
53272;DHT22;39160;48.580;7.756;2024-01-15T16:38:08;2.50;99.90
53272;DHT22;39160;48.580;7.756;2024-01-15T16:42:58;2.50;99.90
53272;DHT22;39160;48.580;7.756;2024-01-15T16:47:49;2.50;99.90
53272;DHT22;39160;48.580;7.756;2024-01-15T16:52:40;2.50;99.90
53272;DHT22;39160;48.580;7.756;2024-01-15T16:57:30;2.40;99.90
53272;DHT22;39160;48.580;7.756;2024-01-15T17:02:21;2.50;99.90
53272;DHT22;39160;48.580;7.756;2024-01-15T17:07:12;2.50;99.90
53272;DHT22;39160;48.580;7.756;2024-01-15T17:12:04;2.50;99.90
53272;DHT22;39160;48.580;7.756;2024-01-15T17:16:54;2.50;99.90
53272;DHT22;39160;48.580;7.756;2024-01-15T17:21:45;2.50;99.90
53272;DHT22;39160;48.580;7.756;2024-01-15T17:26:36;2.60;99.90
53272;DHT22;39160;48.580;7.756;2024-01-15T17:31:28;2.50;99.90
53272;DHT22;39160;48.580;7.756;2024-01-15T17:36:20;2.50;99.90
53272;DHT22;39160;48.580;7.756;2024-01-15T17:41:10;2.50;99.90
53272;DHT22;39160;48.580;7.756;2024-01-15T17:46:03;2.50;99.90
53272;DHT22;39160;48.580;7.756;2024-01-15T17:50:54;2.50;99.90
53272;DHT22;39160;48.580;7.756;2024-01-15T17:55:44;2.50;99.90
53272;DHT22;39160;48.580;7.756;2024-01-15T18:00:35;2.50;99.90
53272;DHT22;39160;48.580;7.756;2024-01-15T18:05:26;2.40;99.90
53272;DHT22;39160;48.580;7.756;2024-01-15T18:10:16;2.40;99.90
53272;DHT22;39160;48.580;7.756;2024-01-15T18:15:08;2.40;99.90
53272;DHT22;39160;48.580;7.756;2024-01-15T18:19:58;2.40;99.90
53272;DHT22;39160;48.580;7.756;2024-01-15T18:24:49;2.40;99.90
53272;DHT22;39160;48.580;7.756;2024-01-15T18:29:40;2.40;99.90
53272;DHT22;39160;48.580;7.756;2024-01-15T18:34:30;2.40;99.90
53272;DHT22;39160;48.580;7.756;2024-01-15T18:39:21;2.40;99.90
53272;DHT22;39160;48.580;7.756;2024-01-15T18:44:12;2.40;99.90
53272;DHT22;39160;48.580;7.756;2024-01-15T18:49:03;2.40;99.90
53272;DHT22;39160;48.580;7.756;2024-01-15T18:53:53;2.30;99.90
53272;DHT22;39160;48.580;7.756;2024-01-15T18:58:44;2.40;99.90
53272;DHT22;39160;48.580;7.756;2024-01-15T19:03:35;2.40;99.90
53272;DHT22;39160;48.580;7.756;2024-01-15T19:08:25;2.40;99.90
53272;DHT22;39160;48.580;7.756;2024-01-15T19:13:17;2.40;99.90
53272;DHT22;39160;48.580;7.756;2024-01-15T19:18:07;2.40;99.90
53272;DHT22;39160;48.580;7.756;2024-01-15T19:22:58;2.40;99.90
53272;DHT22;39160;48.580;7.756;2024-01-15T19:27:50;2.40;99.90
53272;DHT22;39160;48.580;7.756;2024-01-15T19:32:42;2.30;99.90
53272;DHT22;39160;48.580;7.756;2024-01-15T19:37:32;2.30;99.90
53272;DHT22;39160;48.580;7.756;2024-01-15T19:42:23;2.40;99.90
53272;DHT22;39160;48.580;7.756;2024-01-15T19:47:14;2.40;99.90
53272;DHT22;39160;48.580;7.756;2024-01-15T19:52:04;2.40;99.90
53272;DHT22;39160;48.580;7.756;2024-01-15T19:56:55;2.40;99.90
53272;DHT22;39160;48.580;7.756;2024-01-15T20:01:46;2.40;99.90
53272;DHT22;39160;48.580;7.756;2024-01-15T20:06:36;2.40;99.90
53272;DHT22;39160;48.580;7.756;2024-01-15T20:11:27;2.40;99.90
53272;DHT22;39160;48.580;7.756;2024-01-15T20:16:21;2.50;99.90
53272;DHT22;39160;48.580;7.756;2024-01-15T20:21:12;2.50;99.90
53272;DHT22;39160;48.580;7.756;2024-01-15T20:26:04;2.50;99.90
53272;DHT22;39160;48.580;7.756;2024-01-15T20:30:55;2.40;99.90
53272;DHT22;39160;48.580;7.756;2024-01-15T20:35:46;2.40;99.90
53272;DHT22;39160;48.580;7.756;2024-01-15T20:40:36;2.40;99.90
53272;DHT22;39160;48.580;7.756;2024-01-15T20:45:27;2.40;99.90
53272;DHT22;39160;48.580;7.756;2024-01-15T20:50:18;2.40;99.90
53272;DHT22;39160;48.580;7.756;2024-01-15T20:55:08;2.50;99.90
53272;DHT22;39160;48.580;7.756;2024-01-15T21:00:00;2.40;99.90
53272;DHT22;39160;48.580;7.756;2024-01-15T21:04:51;2.40;99.90
53272;DHT22;39160;48.580;7.756;2024-01-15T21:09:41;2.40;99.90
53272;DHT22;39160;48.580;7.756;2024-01-15T21:14:32;2.40;99.90
53272;DHT22;39160;48.580;7.756;2024-01-15T21:19:25;2.30;99.90
53272;DHT22;39160;48.580;7.756;2024-01-15T21:24:16;2.30;99.90
53272;DHT22;39160;48.580;7.756;2024-01-15T21:29:07;2.30;99.90
53272;DHT22;39160;48.580;7.756;2024-01-15T21:34:01;2.30;99.90
53272;DHT22;39160;48.580;7.756;2024-01-15T21:38:52;2.40;99.90
53272;DHT22;39160;48.580;7.756;2024-01-15T21:43:43;2.30;99.90
53272;DHT22;39160;48.580;7.756;2024-01-15T21:48:34;2.40;99.90
53272;DHT22;39160;48.580;7.756;2024-01-15T21:53:24;2.30;99.90
53272;DHT22;39160;48.580;7.756;2024-01-15T21:58:15;2.30;99.90
53272;DHT22;39160;48.580;7.756;2024-01-15T22:03:06;2.30;99.90
53272;DHT22;39160;48.580;7.756;2024-01-15T22:07:57;2.30;99.90
53272;DHT22;39160;48.580;7.756;2024-01-15T22:12:49;2.30;99.90
53272;DHT22;39160;48.580;7.756;2024-01-15T22:17:40;2.20;99.90
53272;DHT22;39160;48.580;7.756;2024-01-15T22:22:30;2.10;99.90
53272;DHT22;39160;48.580;7.756;2024-01-15T22:27:23;2.20;99.90
53272;DHT22;39160;48.580;7.756;2024-01-15T22:32:13;2.20;99.90
53272;DHT22;39160;48.580;7.756;2024-01-15T22:37:04;2.30;99.90
53272;DHT22;39160;48.580;7.756;2024-01-15T22:41:55;2.30;99.90
53272;DHT22;39160;48.580;7.756;2024-01-15T22:46:46;2.40;99.90
53272;DHT22;39160;48.580;7.756;2024-01-15T22:51:37;2.30;99.90
53272;DHT22;39160;48.580;7.756;2024-01-15T22:56:27;2.30;99.90
53272;DHT22;39160;48.580;7.756;2024-01-15T23:01:20;2.30;99.90
53272;DHT22;39160;48.580;7.756;2024-01-15T23:06:21;2.30;99.90
53272;DHT22;39160;48.580;7.756;2024-01-15T23:11:11;2.30;99.90
53272;DHT22;39160;48.580;7.756;2024-01-15T23:16:02;2.30;99.90
53272;DHT22;39160;48.580;7.756;2024-01-15T23:20:53;2.20;99.90
53272;DHT22;39160;48.580;7.756;2024-01-15T23:25:44;2.30;99.90
53272;DHT22;39160;48.580;7.756;2024-01-15T23:30:35;2.30;99.90
53272;DHT22;39160;48.580;7.756;2024-01-15T23:35:25;2.30;99.90
53272;DHT22;39160;48.580;7.756;2024-01-15T23:40:16;2.30;99.90
53272;DHT22;39160;48.580;7.756;2024-01-15T23:45:07;2.40;99.90
53272;DHT22;39160;48.580;7.756;2024-01-15T23:49:57;2.30;99.90
53272;DHT22;39160;48.580;7.756;2024-01-15T23:54:48;2.20;99.90
53272;DHT22;39160;48.580;7.756;2024-01-15T23:59:40;2.30;99.90
